Time;durP1;ratioP1;P1;durP2;ratioP2;P2;SDS_P1;SDS_P2;PMS_P1;PMS_P2;Temp;Humidity;BMP_temperature;BMP_pressure;BME280_temperature;BME280_humidity;BME280_pressure;Samples;Min_cycle;Max_cycle;Signal;HPM_P1;HPM_P2
2022/01/04 00:01:24;;;;;;;6.82;1.38;;;;;;;;;;5092414;28;20020;-66
2022/01/04 00:03:50;;;;;;;4.22;1.17;;;;;;;;;;5092285;28;20024;-68
2022/01/04 00:06:16;;;;;;;3.95;1.17;;;;;;;;;;5091481;28;20021;-63
2022/01/04 00:08:42;;;;;;;4.22;1.40;;;;;;;;;;5092288;28;20021;-64
2022/01/04 00:11:15;;;;;;;4.65;1.10;;;;;;;;;;5091011;28;20488;-67
2022/01/04 00:13:41;;;;;;;4.60;1.50;;;;;;;;;;5092242;28;20104;-66
2022/01/04 00:16:10;;;;;;;6.05;1.40;;;;;;;;;;5091316;28;20597;-67
2022/01/04 00:18:36;;;;;;;3.95;1.40;;;;;;;;;;5092104;28;20020;-71
2022/01/04 00:21:02;;;;;;;3.95;1.30;;;;;;;;;;5091815;28;20020;-70
2022/01/04 00:23:28;;;;;;;5.78;1.63;;;;;;;;;;5074448;28;20044;-73
2022/01/04 00:25:54;;;;;;;6.95;1.85;;;;;;;;;;5072507;28;20485;-77
2022/01/04 00:28:20;;;;;;;4.53;1.70;;;;;;;;;;5072553;28;20039;-78
2022/01/04 00:30:46;;;;;;;4.78;1.15;;;;;;;;;;5072429;28;20036;-73
2022/01/04 00:33:13;;;;;;;3.47;1.42;;;;;;;;;;5073079;28;20021;-70
2022/01/04 00:35:40;;;;;;;4.93;1.35;;;;;;;;;;5072424;28;20438;-69
2022/01/04 00:38:06;;;;;;;5.22;1.67;;;;;;;;;;5072255;28;20039;-79
2022/01/04 00:40:32;;;;;;;4.68;1.90;;;;;;;;;;5072202;28;20016;-81
2022/01/04 00:42:58;;;;;;;4.30;1.63;;;;;;;;;;5072420;28;20427;-79
2022/01/04 00:45:25;;;;;;;5.05;1.63;;;;;;;;;;5072327;28;20051;-73
2022/01/04 00:50:21;;;;;;;4.00;1.70;;;;;;;;;;5072068;28;20120;-72
2022/01/04 00:52:47;;;;;;;5.63;1.90;;;;;;;;;;5073561;28;20027;-86
2022/01/04 00:55:13;;;;;;;3.97;1.50;;;;;;;;;;5073610;28;20039;-87
2022/01/04 00:57:40;;;;;;;4.13;1.65;;;;;;;;;;5071662;28;20016;-77
2022/01/04 01:00:06;;;;;;;4.53;1.67;;;;;;;;;;5072913;28;20048;-80
2022/01/04 01:02:33;;;;;;;5.13;2.00;;;;;;;;;;5071682;28;20535;-71
2022/01/04 01:04:59;;;;;;;3.97;1.80;;;;;;;;;;5071547;28;20039;-72
2022/01/04 01:07:25;;;;;;;5.05;1.95;;;;;;;;;;5071766;28;20020;-68
2022/01/04 01:12:35;;;;;;;5.30;2.28;;;;;;;;;;5071722;28;20038;-74
2022/01/04 01:15:03;;;;;;;6.78;1.77;;;;;;;;;;5072246;28;20024;-84
2022/01/04 01:17:30;;;;;;;8.05;2.55;;;;;;;;;;5072079;28;20024;-75
2022/01/04 01:19:56;;;;;;;5.22;2.20;;;;;;;;;;5070528;28;20086;-72
2022/01/04 01:22:22;;;;;;;5.53;2.35;;;;;;;;;;5071752;28;20102;-78
2022/01/04 01:24:48;;;;;;;4.50;2.08;;;;;;;;;;5072581;28;20025;-68
2022/01/04 01:27:14;;;;;;;5.40;2.42;;;;;;;;;;5076840;28;20431;-76
2022/01/04 01:29:40;;;;;;;4.97;2.40;;;;;;;;;;5077462;28;20153;-73
2022/01/04 01:32:07;;;;;;;5.30;2.60;;;;;;;;;;5080014;28;20025;-70
2022/01/04 01:34:33;;;;;;;7.55;3.00;;;;;;;;;;5092960;28;20155;-63
2022/01/04 01:36:59;;;;;;;5.47;2.58;;;;;;;;;;5093521;28;20082;-66
2022/01/04 01:39:25;;;;;;;7.53;3.15;;;;;;;;;;5096072;28;20123;-79
2022/01/04 01:41:51;;;;;;;5.90;2.90;;;;;;;;;;5107140;28;20016;-86
2022/01/04 01:44:17;;;;;;;6.80;2.85;;;;;;;;;;5099822;28;20028;-72
2022/01/04 01:46:43;;;;;;;5.45;3.20;;;;;;;;;;5096907;28;20070;-73
2022/01/04 01:49:10;;;;;;;8.65;3.30;;;;;;;;;;5097871;28;20028;-68
2022/01/04 01:51:36;;;;;;;5.97;3.28;;;;;;;;;;5098427;28;20039;-83
2022/01/04 01:54:02;;;;;;;6.18;3.28;;;;;;;;;;5097129;28;20078;-79
2022/01/04 01:56:29;;;;;;;8.15;3.65;;;;;;;;;;5098276;28;20385;-73
2022/01/04 01:58:55;;;;;;;7.35;4.18;;;;;;;;;;5098467;28;20019;-82
2022/01/04 02:01:21;;;;;;;7.72;4.18;;;;;;;;;;5098252;28;20028;-75
2022/01/04 02:03:47;;;;;;;7.15;4.32;;;;;;;;;;5097897;28;20476;-68
2022/01/04 02:06:14;;;;;;;7.22;4.28;;;;;;;;;;5097790;28;20032;-79
2022/01/04 02:08:40;;;;;;;6.90;4.40;;;;;;;;;;5097565;28;20024;-73
2022/01/04 02:11:06;;;;;;;6.57;3.72;;;;;;;;;;5097627;28;20032;-69
2022/01/04 02:13:32;;;;;;;9.75;4.88;;;;;;;;;;5098272;28;20024;-79
2022/01/04 02:15:58;;;;;;;8.07;4.28;;;;;;;;;;5097997;28;20629;-66
2022/01/04 02:18:24;;;;;;;11.05;4.65;;;;;;;;;;5098681;28;20096;-77
2022/01/04 02:20:50;;;;;;;9.32;5.47;;;;;;;;;;5097579;28;20046;-77
2022/01/04 02:23:16;;;;;;;9.60;5.53;;;;;;;;;;5096828;28;20090;-73
2022/01/04 02:25:42;;;;;;;9.85;4.32;;;;;;;;;;5098415;28;20031;-81
2022/01/04 02:28:09;;;;;;;8.93;5.97;;;;;;;;;;5098131;28;20023;-78
2022/01/04 02:30:36;;;;;;;8.18;5.20;;;;;;;;;;5097959;28;20412;-78
2022/01/04 02:33:02;;;;;;;8.55;5.60;;;;;;;;;;5097988;28;20089;-69
2022/01/04 02:35:33;;;;;;;8.27;5.45;;;;;;;;;;5097874;28;20020;-70
2022/01/04 02:40:45;;;;;;;9.20;5.03;;;;;;;;;;5094754;28;20066;-72
2022/01/04 02:43:11;;;;;;;8.75;5.50;;;;;;;;;;5094557;28;20465;-76
2022/01/04 02:45:37;;;;;;;10.45;5.63;;;;;;;;;;5094857;28;20020;-76
2022/01/04 02:48:03;;;;;;;8.63;5.03;;;;;;;;;;5093207;28;20020;-75
2022/01/04 02:50:29;;;;;;;8.63;5.00;;;;;;;;;;5094440;28;20028;-78
2022/01/04 02:52:56;;;;;;;8.95;4.60;;;;;;;;;;5093393;28;20103;-80
2022/01/04 02:55:22;;;;;;;9.30;5.75;;;;;;;;;;5094115;28;20030;-76
2022/01/04 02:57:48;;;;;;;9.00;5.35;;;;;;;;;;5094297;28;20074;-64
2022/01/04 03:00:15;;;;;;;9.85;5.18;;;;;;;;;;5092839;28;20030;-74
2022/01/04 03:02:41;;;;;;;7.97;5.00;;;;;;;;;;5094421;28;20016;-82
2022/01/04 03:05:08;;;;;;;9.25;5.82;;;;;;;;;;5094459;28;20022;-67
2022/01/04 03:07:34;;;;;;;8.15;4.88;;;;;;;;;;5094228;28;20032;-78
2022/01/04 03:10:00;;;;;;;7.50;4.72;;;;;;;;;;5080571;28;20116;-79
2022/01/04 03:12:26;;;;;;;8.90;5.38;;;;;;;;;;5073891;28;20471;-74
2022/01/04 03:14:52;;;;;;;8.63;5.10;;;;;;;;;;5073528;28;20021;-75
2022/01/04 03:17:18;;;;;;;8.18;4.82;;;;;;;;;;5073549;28;20016;-76
2022/01/04 03:19:44;;;;;;;7.95;4.43;;;;;;;;;;5073908;28;20031;-76
2022/01/04 03:22:10;;;;;;;7.93;4.95;;;;;;;;;;5072148;28;20135;-70
2022/01/04 03:24:36;;;;;;;10.73;5.20;;;;;;;;;;5073870;28;20081;-79
2022/01/04 03:27:02;;;;;;;9.40;4.85;;;;;;;;;;5072381;28;20024;-77
2022/01/04 03:29:28;;;;;;;8.50;5.38;;;;;;;;;;5073636;28;20031;-67
2022/01/04 03:31:57;;;;;;;8.35;5.35;;;;;;;;;;5073574;28;20496;-75
2022/01/04 03:34:23;;;;;;;8.85;5.30;;;;;;;;;;5073408;28;20044;-73
2022/01/04 03:36:49;;;;;;;9.38;4.93;;;;;;;;;;5073563;28;20503;-78
2022/01/04 03:39:15;;;;;;;9.27;5.28;;;;;;;;;;5073700;28;20485;-79
2022/01/04 03:41:42;;;;;;;8.20;4.68;;;;;;;;;;5073609;28;20029;-85
2022/01/04 03:44:10;;;;;;;7.07;4.75;;;;;;;;;;5074229;28;20428;-84
2022/01/04 03:46:36;;;;;;;10.07;4.97;;;;;;;;;;5072861;28;20016;-69
2022/01/04 03:49:02;;;;;;;8.02;4.40;;;;;;;;;;5072734;28;20017;-76
2022/01/04 03:51:28;;;;;;;9.45;4.43;;;;;;;;;;5074737;28;20032;-82
2022/01/04 03:53:54;;;;;;;8.02;4.85;;;;;;;;;;5073809;28;20040;-75
2022/01/04 03:56:21;;;;;;;12.30;4.72;;;;;;;;;;5073235;28;20025;-72
2022/01/04 03:58:47;;;;;;;8.27;4.82;;;;;;;;;;5072990;28;20046;-81
2022/01/04 04:01:13;;;;;;;10.73;5.15;;;;;;;;;;5074116;28;20020;-71
2022/01/04 04:03:39;;;;;;;8.25;5.05;;;;;;;;;;5074173;28;20021;-72
2022/01/04 04:06:05;;;;;;;8.25;5.10;;;;;;;;;;5073200;28;20021;-71
2022/01/04 04:08:31;;;;;;;7.18;3.70;;;;;;;;;;5072778;28;20021;-77
2022/01/04 04:10:57;;;;;;;9.00;4.78;;;;;;;;;;5072482;28;20078;-67
2022/01/04 04:13:23;;;;;;;7.53;4.63;;;;;;;;;;5072810;28;20503;-64
2022/01/04 04:15:49;;;;;;;7.55;4.53;;;;;;;;;;5082148;28;20048;-62
2022/01/04 04:18:17;;;;;;;7.78;4.50;;;;;;;;;;5086420;28;20025;-73
2022/01/04 04:20:43;;;;;;;6.55;4.43;;;;;;;;;;5073236;28;20017;-75
2022/01/04 04:23:10;;;;;;;7.72;4.85;;;;;;;;;;5071914;28;20448;-80
2022/01/04 04:25:37;;;;;;;8.20;5.00;;;;;;;;;;5070756;28;20093;-83
2022/01/04 04:28:03;;;;;;;6.68;4.15;;;;;;;;;;5072117;28;20062;-67
2022/01/04 04:30:29;;;;;;;7.95;4.57;;;;;;;;;;5072285;28;20035;-75
2022/01/04 04:32:55;;;;;;;7.45;4.22;;;;;;;;;;5072590;28;20035;-82
2022/01/04 04:35:21;;;;;;;7.88;5.10;;;;;;;;;;5071279;28;20541;-78
2022/01/04 04:37:47;;;;;;;15.25;4.55;;;;;;;;;;5072206;28;20102;-81
2022/01/04 04:40:14;;;;;;;6.85;4.63;;;;;;;;;;5071890;28;20031;-72
2022/01/04 04:42:40;;;;;;;7.47;4.45;;;;;;;;;;5072135;28;20021;-78
2022/01/04 04:45:06;;;;;;;20.70;4.53;;;;;;;;;;5071986;28;20025;-76
2022/01/04 04:47:32;;;;;;;7.93;4.75;;;;;;;;;;5072053;28;20511;-81
2022/01/04 04:50:00;;;;;;;7.97;3.75;;;;;;;;;;5071963;28;20083;-73
2022/01/04 04:52:26;;;;;;;11.25;4.85;;;;;;;;;;5072200;28;20025;-64
2022/01/04 04:54:52;;;;;;;8.13;4.85;;;;;;;;;;5070722;28;20017;-83
2022/01/04 04:57:18;;;;;;;6.72;4.20;;;;;;;;;;5071955;28;20082;-69
2022/01/04 04:59:44;;;;;;;7.55;4.72;;;;;;;;;;5072167;28;20055;-86
2022/01/04 05:02:10;;;;;;;6.75;3.63;;;;;;;;;;5071603;28;20020;-75
2022/01/04 05:04:37;;;;;;;9.15;4.25;;;;;;;;;;5071815;28;20021;-81
2022/01/04 05:07:04;;;;;;;6.75;4.07;;;;;;;;;;5071778;28;20024;-74
2022/01/04 05:09:30;;;;;;;8.25;4.13;;;;;;;;;;5075993;28;20024;-73
2022/01/04 05:11:56;;;;;;;6.28;3.70;;;;;;;;;;5092992;28;20036;-76
2022/01/04 05:14:22;;;;;;;6.15;3.97;;;;;;;;;;5091976;28;20024;-80
2022/01/04 05:16:48;;;;;;;8.93;4.40;;;;;;;;;;5091783;28;20117;-80
2022/01/04 05:19:15;;;;;;;7.63;4.55;;;;;;;;;;5091541;28;20016;-77
2022/01/04 05:21:41;;;;;;;6.65;3.78;;;;;;;;;;5091352;28;20020;-71
2022/01/04 05:24:07;;;;;;;8.88;4.28;;;;;;;;;;5091680;28;20032;-72
2022/01/04 05:26:33;;;;;;;8.60;3.83;;;;;;;;;;5090633;28;20024;-71
2022/01/04 05:29:00;;;;;;;7.47;4.03;;;;;;;;;;5092348;28;20024;-71
2022/01/04 05:31:26;;;;;;;6.93;3.78;;;;;;;;;;5090781;28;20142;-82
2022/01/04 05:33:52;;;;;;;6.72;3.97;;;;;;;;;;5091568;28;20046;-77
2022/01/04 05:36:18;;;;;;;6.93;4.13;;;;;;;;;;5091672;28;20028;-81
2022/01/04 05:38:44;;;;;;;7.57;4.30;;;;;;;;;;5091801;28;20016;-74
2022/01/04 05:41:10;;;;;;;7.25;3.88;;;;;;;;;;5091711;28;20013;-81
2022/01/04 05:43:36;;;;;;;8.27;4.45;;;;;;;;;;5091634;28;20043;-82
2022/01/04 05:46:02;;;;;;;6.35;3.58;;;;;;;;;;5091583;28;20020;-76
2022/01/04 05:48:28;;;;;;;7.70;4.60;;;;;;;;;;5091619;28;20099;-85
2022/01/04 05:50:54;;;;;;;6.45;3.75;;;;;;;;;;5091859;28;20075;-80
2022/01/04 05:53:20;;;;;;;7.30;4.28;;;;;;;;;;5091659;28;20100;-83
2022/01/04 05:55:47;;;;;;;6.75;4.22;;;;;;;;;;5090533;28;20031;-83
2022/01/04 05:58:13;;;;;;;7.28;3.80;;;;;;;;;;5091571;28;20115;-82
2022/01/04 06:00:40;;;;;;;7.45;4.72;;;;;;;;;;5091649;28;20099;-74
2022/01/04 06:03:06;;;;;;;7.13;4.53;;;;;;;;;;5092009;28;20020;-80
2022/01/04 06:05:32;;;;;;;7.47;4.63;;;;;;;;;;5090390;28;20111;-84
2022/01/04 06:07:58;;;;;;;6.63;3.95;;;;;;;;;;5092169;28;20027;-79
2022/01/04 06:10:24;;;;;;;6.43;4.65;;;;;;;;;;5090311;28;20032;-78
2022/01/04 06:15:16;;;;;;;8.65;3.88;;;;;;;;;;5096594;28;20028;-85
2022/01/04 06:17:44;;;;;;;6.95;3.90;;;;;;;;;;5095240;28;20040;-72
2022/01/04 06:20:12;;;;;;;8.10;4.07;;;;;;;;;;5095942;28;20055;-77
2022/01/04 06:22:38;;;;;;;6.95;3.67;;;;;;;;;;5096690;28;20047;-81
2022/01/04 06:25:05;;;;;;;6.95;3.80;;;;;;;;;;5085221;28;20505;-72
2022/01/04 06:27:31;;;;;;;6.05;3.40;;;;;;;;;;5075158;28;20040;-77
2022/01/04 06:29:58;;;;;;;8.35;4.47;;;;;;;;;;5074776;28;20027;-77
2022/01/04 06:32:24;;;;;;;5.60;3.60;;;;;;;;;;5074582;28;20021;-72
2022/01/04 06:34:50;;;;;;;8.25;4.72;;;;;;;;;;5074403;28;20021;-75
2022/01/04 06:37:16;;;;;;;5.72;3.53;;;;;;;;;;5075307;28;20056;-80
2022/01/04 06:39:43;;;;;;;5.78;3.28;;;;;;;;;;5073680;28;20025;-68
2022/01/04 06:42:11;;;;;;;6.43;4.03;;;;;;;;;;5074900;28;20174;-81
2022/01/04 06:44:37;;;;;;;6.15;3.17;;;;;;;;;;5077873;28;20021;-69
2022/01/04 06:47:04;;;;;;;6.32;3.75;;;;;;;;;;5076063;28;20025;-77
2022/01/04 06:49:30;;;;;;;6.25;3.47;;;;;;;;;;5074929;28;20024;-83
2022/01/04 06:51:56;;;;;;;7.03;4.30;;;;;;;;;;5076646;28;20397;-68
2022/01/04 06:54:22;;;;;;;5.18;3.28;;;;;;;;;;5086746;28;20032;-73
2022/01/04 06:56:48;;;;;;;7.68;3.33;;;;;;;;;;5085218;28;20437;-79
2022/01/04 06:59:15;;;;;;;7.45;3.53;;;;;;;;;;5082908;28;20017;-71
2022/01/04 07:01:41;;;;;;;7.45;3.30;;;;;;;;;;5075453;28;20021;-82
2022/01/04 07:04:08;;;;;;;7.32;3.70;;;;;;;;;;5073833;28;20051;-69
2022/01/04 07:06:34;;;;;;;5.15;3.13;;;;;;;;;;5075090;28;20406;-68
2022/01/04 07:09:00;;;;;;;6.43;3.50;;;;;;;;;;5073159;28;20027;-89
2022/01/04 07:11:27;;;;;;;5.20;3.25;;;;;;;;;;5075640;28;20385;-75
2022/01/04 07:13:53;;;;;;;6.05;3.38;;;;;;;;;;5075437;28;20093;-82
2022/01/04 07:16:19;;;;;;;6.43;3.20;;;;;;;;;;5074798;28;20024;-75
2022/01/04 07:18:48;;;;;;;6.30;3.50;;;;;;;;;;5073913;28;20113;-75
2022/01/04 07:21:14;;;;;;;5.93;3.40;;;;;;;;;;5074528;28;20123;-76
2022/01/04 07:23:41;;;;;;;8.88;3.60;;;;;;;;;;5075768;28;20110;-84
2022/01/04 07:26:11;;;;;;;5.50;3.22;;;;;;;;;;5075895;28;20028;-79
2022/01/04 07:28:38;;;;;;;6.00;3.30;;;;;;;;;;5074794;28;20028;-83
2022/01/04 07:31:05;;;;;;;7.13;3.00;;;;;;;;;;5073945;28;20485;-73
2022/01/04 07:33:31;;;;;;;13.93;3.08;;;;;;;;;;5074387;28;20082;-73
2022/01/04 07:35:57;;;;;;;5.05;3.20;;;;;;;;;;5073431;28;20024;-75
2022/01/04 07:38:23;;;;;;;5.60;3.08;;;;;;;;;;5073735;28;20046;-85
2022/01/04 07:40:49;;;;;;;5.25;3.03;;;;;;;;;;5073493;28;20028;-68
2022/01/04 07:43:15;;;;;;;4.82;2.70;;;;;;;;;;5073288;28;20377;-80
2022/01/04 07:45:41;;;;;;;5.13;3.20;;;;;;;;;;5073044;28;20040;-71
2022/01/04 07:48:10;;;;;;;7.82;3.25;;;;;;;;;;5073044;28;20024;-76
2022/01/04 07:50:40;;;;;;;5.07;3.00;;;;;;;;;;5073249;28;20515;-81
2022/01/04 07:53:06;;;;;;;4.95;3.00;;;;;;;;;;5073290;28;20381;-78
2022/01/04 07:55:34;;;;;;;4.63;2.65;;;;;;;;;;5072991;28;20028;-73
2022/01/04 07:58:00;;;;;;;4.40;2.78;;;;;;;;;;5071406;28;20518;-76
2022/01/04 08:00:26;;;;;;;6.28;3.35;;;;;;;;;;5072932;28;20017;-72
2022/01/04 08:02:52;;;;;;;4.70;2.78;;;;;;;;;;5072841;28;20075;-78
2022/01/04 08:05:19;;;;;;;5.45;2.95;;;;;;;;;;5072595;28;20024;-72
2022/01/04 08:07:45;;;;;;;4.90;2.58;;;;;;;;;;5072688;28;20024;-78
2022/01/04 08:10:12;;;;;;;5.80;3.22;;;;;;;;;;5071211;28;20040;-71
2022/01/04 08:12:38;;;;;;;5.65;2.85;;;;;;;;;;5072903;28;20119;-70
2022/01/04 08:15:05;;;;;;;5.13;2.90;;;;;;;;;;5072378;28;20017;-74
2022/01/04 08:17:31;;;;;;;4.25;2.80;;;;;;;;;;5072379;28;20024;-76
2022/01/04 08:19:57;;;;;;;4.97;2.60;;;;;;;;;;5072268;28;20032;-68
2022/01/04 08:22:23;;;;;;;4.85;2.90;;;;;;;;;;5072165;28;20052;-69
2022/01/04 08:24:49;;;;;;;12.40;2.50;;;;;;;;;;5071603;28;20028;-66
2022/01/04 08:27:16;;;;;;;46.67;5.63;;;;;;;;;;5072418;28;20105;-79
2022/01/04 08:29:43;;;;;;;13.65;2.88;;;;;;;;;;5076443;28;20039;-66
2022/01/04 08:32:09;;;;;;;14.15;2.40;;;;;;;;;;5092501;28;20136;-81
2022/01/04 08:34:35;;;;;;;11.10;3.45;;;;;;;;;;5092302;28;20020;-75
2022/01/04 08:37:01;;;;;;;9.50;2.00;;;;;;;;;;5090777;28;20028;-73
2022/01/04 08:39:27;;;;;;;4.15;1.92;;;;;;;;;;5091209;28;20028;-79
2022/01/04 08:41:55;;;;;;;4.00;1.45;;;;;;;;;;5092348;28;20103;-72
2022/01/04 08:44:21;;;;;;;3.67;1.70;;;;;;;;;;5092319;28;20028;-80
2022/01/04 08:46:47;;;;;;;4.75;2.00;;;;;;;;;;5092114;28;20024;-68
2022/01/04 08:49:13;;;;;;;5.65;1.83;;;;;;;;;;5091781;28;20043;-76
2022/01/04 08:51:39;;;;;;;3.28;1.60;;;;;;;;;;5091877;28;20043;-79
2022/01/04 08:54:06;;;;;;;4.43;1.60;;;;;;;;;;5090950;28;20024;-76
2022/01/04 08:56:32;;;;;;;4.43;1.60;;;;;;;;;;5091959;28;20034;-70
2022/01/04 08:58:59;;;;;;;5.45;1.63;;;;;;;;;;5091637;28;20523;-72
2022/01/04 09:01:25;;;;;;;3.47;1.67;;;;;;;;;;5091381;28;20020;-73
2022/01/04 09:03:51;;;;;;;4.20;1.90;;;;;;;;;;5091918;28;20031;-79
2022/01/04 09:06:19;;;;;;;5.07;1.80;;;;;;;;;;5092037;28;20027;-75
2022/01/04 09:08:46;;;;;;;4.55;1.75;;;;;;;;;;5090535;28;20020;-70
2022/01/04 09:11:12;;;;;;;3.03;1.60;;;;;;;;;;5091699;28;20036;-71
2022/01/04 09:13:42;;;;;;;4.93;1.33;;;;;;;;;;5092005;28;20491;-74
2022/01/04 09:18:46;;;;;;;3.05;1.30;;;;;;;;;;5091694;28;20021;-65
2022/01/04 09:21:16;;;;;;;3.58;1.50;;;;;;;;;;5091739;28;20461;-66
2022/01/04 09:23:43;;;;;;;4.20;1.52;;;;;;;;;;5092804;28;20116;-74
2022/01/04 09:26:09;;;;;;;12.80;2.65;;;;;;;;;;5074999;28;20040;-77
2022/01/04 09:28:36;;;;;;;8.95;2.10;;;;;;;;;;5092263;28;20512;-69
2022/01/04 09:31:02;;;;;;;10.48;2.20;;;;;;;;;;5097327;28;20040;-70
2022/01/04 09:33:29;;;;;;;7.20;2.17;;;;;;;;;;5099279;28;20427;-74
2022/01/04 09:35:55;;;;;;;6.13;2.65;;;;;;;;;;5078427;28;20020;-78
2022/01/04 09:38:22;;;;;;;6.50;2.50;;;;;;;;;;5083481;28;20047;-75
2022/01/04 09:40:49;;;;;;;6.32;2.33;;;;;;;;;;5076727;28;20060;-68
2022/01/04 09:43:15;;;;;;;6.95;2.22;;;;;;;;;;5071480;28;20040;-73
2022/01/04 09:45:41;;;;;;;11.18;2.63;;;;;;;;;;5071240;28;20416;-76
2022/01/04 09:48:08;;;;;;;12.77;2.50;;;;;;;;;;5073236;28;20092;-76
2022/01/04 09:50:36;;;;;;;5.68;2.28;;;;;;;;;;5075178;28;20116;-72
2022/01/04 09:53:02;;;;;;;4.78;2.35;;;;;;;;;;5074876;28;20032;-74
2022/01/04 09:55:28;;;;;;;6.40;2.30;;;;;;;;;;5074810;28;20099;-69
2022/01/04 09:57:54;;;;;;;3.42;1.90;;;;;;;;;;5075172;28;20492;-71
2022/01/04 10:00:20;;;;;;;5.25;2.42;;;;;;;;;;5075009;28;20025;-69
2022/01/04 10:02:49;;;;;;;6.13;2.25;;;;;;;;;;5081411;28;20028;-69
2022/01/04 10:05:18;;;;;;;6.57;2.70;;;;;;;;;;5092574;28;20118;-73
2022/01/04 10:07:45;;;;;;;5.00;2.60;;;;;;;;;;5093772;28;20036;-72
2022/01/04 10:10:16;;;;;;;9.63;3.03;;;;;;;;;;5095132;28;20119;-76
2022/01/04 10:12:56;;;;;;;6.20;2.30;;;;;;;;;;5093756;28;20118;-76
2022/01/04 10:15:34;;;;;;;6.72;2.17;;;;;;;;;;5095307;28;20520;-72
2022/01/04 10:18:21;;;;;;;14.85;2.80;;;;;;;;;;5095212;28;20127;-70
2022/01/04 10:20:53;;;;;;;8.70;2.85;;;;;;;;;;5093769;28;20036;-76
2022/01/04 10:23:22;;;;;;;6.05;3.03;;;;;;;;;;5094831;28;20083;-76
2022/01/04 10:25:48;;;;;;;6.53;2.92;;;;;;;;;;5095001;28;20380;-78
2022/01/04 10:28:31;;;;;;;5.93;2.53;;;;;;;;;;5094784;28;20108;-77
2022/01/04 10:31:02;;;;;;;4.60;2.30;;;;;;;;;;5094371;28;20362;-74
2022/01/04 10:33:28;;;;;;;7.82;2.58;;;;;;;;;;5094736;28;20432;-76
2022/01/04 10:35:55;;;;;;;4.40;2.25;;;;;;;;;;5094817;28;20020;-75
2022/01/04 10:38:27;;;;;;;7.05;2.60;;;;;;;;;;5094490;28;20047;-76
2022/01/04 10:41:04;;;;;;;7.85;2.63;;;;;;;;;;5093714;28;20115;-74
2022/01/04 10:43:30;;;;;;;6.88;2.88;;;;;;;;;;5094755;28;20033;-68
2022/01/04 10:45:56;;;;;;;4.97;2.35;;;;;;;;;;5094554;28;20103;-69
2022/01/04 10:48:24;;;;;;;8.00;2.95;;;;;;;;;;5094593;28;20024;-70
2022/01/04 10:50:55;;;;;;;4.60;2.70;;;;;;;;;;5094215;28;20116;-76
2022/01/04 10:53:44;;;;;;;5.10;2.30;;;;;;;;;;5094367;28;20380;-65
2022/01/04 10:56:11;;;;;;;5.72;2.58;;;;;;;;;;5086178;28;20130;-70
2022/01/04 10:58:38;;;;;;;4.88;2.70;;;;;;;;;;5092263;28;20020;-77
2022/01/04 11:01:07;;;;;;;6.32;2.95;;;;;;;;;;5093991;28;20552;-77
2022/01/04 11:03:34;;;;;;;4.13;2.20;;;;;;;;;;5094156;28;20508;-75
2022/01/04 11:06:02;;;;;;;6.95;2.55;;;;;;;;;;5094150;28;20377;-67
2022/01/04 11:08:28;;;;;;;3.80;1.95;;;;;;;;;;5094477;28;20020;-66
2022/01/04 11:10:55;;;;;;;5.80;2.45;;;;;;;;;;5093935;28;20055;-64
2022/01/04 11:13:21;;;;;;;4.50;2.40;;;;;;;;;;5094290;28;20439;-74
2022/01/04 11:15:48;;;;;;;8.88;2.33;;;;;;;;;;5093948;28;20019;-72
2022/01/04 11:18:14;;;;;;;5.30;2.50;;;;;;;;;;5094097;28;20107;-69
2022/01/04 11:20:41;;;;;;;4.88;2.50;;;;;;;;;;5094161;28;20431;-67
2022/01/04 11:23:07;;;;;;;9.65;2.60;;;;;;;;;;5093891;28;20047;-74
2022/01/04 11:25:33;;;;;;;5.20;2.47;;;;;;;;;;5094061;28;20084;-74
2022/01/04 11:28:01;;;;;;;4.82;2.13;;;;;;;;;;5093629;28;20016;-78
2022/01/04 11:30:39;;;;;;;5.60;2.83;;;;;;;;;;5093469;28;20036;-65
2022/01/04 11:33:26;;;;;;;5.57;2.45;;;;;;;;;;5093568;28;20052;-69
2022/01/04 11:35:53;;;;;;;4.57;2.38;;;;;;;;;;5094060;28;20058;-74
2022/01/04 11:38:32;;;;;;;4.15;2.17;;;;;;;;;;5094134;28;20016;-74
2022/01/04 11:40:58;;;;;;;5.68;2.83;;;;;;;;;;5076990;28;20036;-68
2022/01/04 11:43:28;;;;;;;5.90;2.58;;;;;;;;;;5073535;28;20025;-77
2022/01/04 11:45:55;;;;;;;8.15;2.30;;;;;;;;;;5074248;28;20067;-76
2022/01/04 11:48:28;;;;;;;5.38;2.60;;;;;;;;;;5073470;28;20565;-72
2022/01/04 11:50:56;;;;;;;4.03;2.25;;;;;;;;;;5073306;28;20037;-75
2022/01/04 11:53:22;;;;;;;4.80;2.70;;;;;;;;;;5073856;28;20070;-64
2022/01/04 11:55:49;;;;;;;6.55;2.35;;;;;;;;;;5073816;28;20036;-72
2022/01/04 11:58:17;;;;;;;5.88;2.28;;;;;;;;;;5074279;28;20025;-76
2022/01/04 12:01:11;;;;;;;4.22;2.10;;;;;;;;;;5074018;28;20043;-77
2022/01/04 12:03:47;;;;;;;4.80;2.60;;;;;;;;;;5072877;28;20123;-68
2022/01/04 12:06:14;;;;;;;5.15;2.65;;;;;;;;;;5073414;28;20029;-69
2022/01/04 12:08:41;;;;;;;3.95;2.10;;;;;;;;;;5079210;28;20017;-62
2022/01/04 12:11:26;;;;;;;4.45;2.15;;;;;;;;;;5084146;28;20028;-62
2022/01/04 12:13:52;;;;;;;5.00;2.20;;;;;;;;;;5075711;28;20108;-77
2022/01/04 12:16:45;;;;;;;5.13;2.55;;;;;;;;;;5072756;28;20024;-72
2022/01/04 12:19:12;;;;;;;5.65;2.60;;;;;;;;;;5071534;28;20048;-67
2022/01/04 12:21:42;;;;;;;4.43;2.22;;;;;;;;;;5072361;28;20472;-75
2022/01/04 12:24:09;;;;;;;5.10;2.60;;;;;;;;;;5072560;28;20020;-74
2022/01/04 12:26:36;;;;;;;3.72;2.13;;;;;;;;;;5072473;28;20100;-72
2022/01/04 12:29:02;;;;;;;5.03;2.33;;;;;;;;;;5072173;28;20100;-76
2022/01/04 12:31:30;;;;;;;7.13;2.63;;;;;;;;;;5072232;28;20060;-74
2022/01/04 12:34:04;;;;;;;4.95;2.42;;;;;;;;;;5072104;28;20017;-74
2022/01/04 12:36:39;;;;;;;5.30;2.30;;;;;;;;;;5072566;28;20483;-77
2022/01/04 12:39:19;;;;;;;5.43;2.60;;;;;;;;;;5072283;28;20020;-78
2022/01/04 12:41:46;;;;;;;4.20;2.28;;;;;;;;;;5071901;28;20016;-69
2022/01/04 12:44:14;;;;;;;6.57;2.40;;;;;;;;;;5072549;28;20029;-66
2022/01/04 12:46:46;;;;;;;4.75;2.00;;;;;;;;;;5070624;28;20021;-71
2022/01/04 12:49:13;;;;;;;4.50;2.17;;;;;;;;;;5071828;28;20059;-72
2022/01/04 12:51:51;;;;;;;5.13;2.50;;;;;;;;;;5071564;28;20036;-76
2022/01/04 12:54:19;;;;;;;4.07;2.00;;;;;;;;;;5071960;28;20024;-72
2022/01/04 12:56:45;;;;;;;4.03;2.10;;;;;;;;;;5071886;28;20021;-74
2022/01/04 12:59:19;;;;;;;5.72;2.30;;;;;;;;;;5071937;28;20073;-72
2022/01/04 13:01:50;;;;;;;6.30;2.38;;;;;;;;;;5070417;28;20093;-71
2022/01/04 13:04:20;;;;;;;5.10;2.45;;;;;;;;;;5071653;28;20104;-75
2022/01/04 13:06:47;;;;;;;5.38;2.50;;;;;;;;;;5071772;28;20111;-78
2022/01/04 13:09:18;;;;;;;5.40;2.33;;;;;;;;;;5071627;28;20539;-73
2022/01/04 13:12:02;;;;;;;3.88;1.90;;;;;;;;;;5071284;28;20035;-72
2022/01/04 13:14:29;;;;;;;5.78;2.67;;;;;;;;;;5072003;28;20028;-69
2022/01/04 13:17:05;;;;;;;5.55;2.72;;;;;;;;;;5070564;28;20040;-76
2022/01/04 13:19:31;;;;;;;7.68;2.20;;;;;;;;;;5071812;28;20027;-77
2022/01/04 13:22:00;;;;;;;6.55;2.55;;;;;;;;;;5070557;28;20043;-81
2022/01/04 13:24:35;;;;;;;4.75;2.20;;;;;;;;;;5070500;28;20494;-77
2022/01/04 13:27:20;;;;;;;5.35;2.65;;;;;;;;;;5071512;28;20023;-77
2022/01/04 13:29:47;;;;;;;3.95;1.92;;;;;;;;;;5071600;28;20051;-71
2022/01/04 13:32:14;;;;;;;4.72;2.40;;;;;;;;;;5071663;28;20175;-71
2022/01/04 13:34:40;;;;;;;4.30;2.10;;;;;;;;;;5070421;28;20032;-75
2022/01/04 13:37:07;;;;;;;5.95;2.60;;;;;;;;;;5071563;28;20036;-71
2022/01/04 13:39:34;;;;;;;4.97;2.50;;;;;;;;;;5070722;28;20021;-74
2022/01/04 13:42:00;;;;;;;4.22;2.22;;;;;;;;;;5071830;28;20097;-79
2022/01/04 13:44:26;;;;;;;5.72;2.70;;;;;;;;;;5070401;28;20485;-78
2022/01/04 13:46:52;;;;;;;6.53;2.22;;;;;;;;;;5070144;28;20462;-78
2022/01/04 13:49:26;;;;;;;4.13;2.10;;;;;;;;;;5071337;28;20093;-76
2022/01/04 13:51:52;;;;;;;6.65;2.55;;;;;;;;;;5071156;28;20516;-70
2022/01/04 13:54:19;;;;;;;5.97;2.50;;;;;;;;;;5069692;28;20029;-72
2022/01/04 13:56:45;;;;;;;4.53;2.40;;;;;;;;;;5070975;28;20028;-70
2022/01/04 13:59:19;;;;;;;4.75;2.50;;;;;;;;;;5070952;28;20027;-66
2022/01/04 14:01:47;;;;;;;5.32;2.78;;;;;;;;;;5071027;28;20409;-65
2022/01/04 14:04:14;;;;;;;5.38;2.47;;;;;;;;;;5071029;28;20024;-68
2022/01/04 14:06:40;;;;;;;6.45;2.70;;;;;;;;;;5070905;28;20017;-77
2022/01/04 14:09:20;;;;;;;5.38;2.53;;;;;;;;;;5070951;28;20541;-72
2022/01/04 14:11:48;;;;;;;4.80;2.55;;;;;;;;;;5070880;28;20234;-69
2022/01/04 14:14:15;;;;;;;5.70;2.60;;;;;;;;;;5071133;28;20481;-77
2022/01/04 14:16:45;;;;;;;7.15;2.70;;;;;;;;;;5070764;28;20074;-78
2022/01/04 14:19:16;;;;;;;6.20;2.50;;;;;;;;;;5070743;28;20096;-73
2022/01/04 14:21:42;;;;;;;5.28;2.75;;;;;;;;;;5070640;28;20008;-67
2022/01/04 14:24:27;;;;;;;6.18;2.40;;;;;;;;;;5070975;28;20040;-66
2022/01/04 14:26:53;;;;;;;6.40;2.47;;;;;;;;;;5071018;28;20025;-67
2022/01/04 14:29:38;;;;;;;4.97;2.75;;;;;;;;;;5071073;28;20077;-71
2022/01/04 14:32:09;;;;;;;5.03;2.60;;;;;;;;;;5070681;28;20094;-66
2022/01/04 14:34:35;;;;;;;4.50;2.25;;;;;;;;;;5073797;28;20020;-66
2022/01/04 14:37:01;;;;;;;4.78;2.53;;;;;;;;;;5075212;28;20024;-65
2022/01/04 14:39:30;;;;;;;5.43;2.80;;;;;;;;;;5075666;28;20080;-72
2022/01/04 14:41:58;;;;;;;5.03;2.10;;;;;;;;;;5075721;28;20017;-70
2022/01/04 14:44:24;;;;;;;5.07;2.70;;;;;;;;;;5075885;28;20027;-75
2022/01/04 14:46:50;;;;;;;5.40;2.28;;;;;;;;;;5081522;28;20028;-73
2022/01/04 14:49:16;;;;;;;6.80;2.50;;;;;;;;;;5086103;28;20066;-66
2022/01/04 14:51:42;;;;;;;5.50;2.60;;;;;;;;;;5078119;28;20481;-79
2022/01/04 14:54:08;;;;;;;6.18;2.60;;;;;;;;;;5074380;28;20037;-70
2022/01/04 14:56:34;;;;;;;5.45;2.50;;;;;;;;;;5074015;28;20025;-78
2022/01/04 14:59:03;;;;;;;5.35;2.47;;;;;;;;;;5073901;28;20020;-78